createdAt,value
2023-05-09T00:00:07.073Z,99.30
2023-05-09T00:01:07.039Z,99.30
2023-05-09T00:02:07.124Z,99.27
2023-05-09T00:03:07.035Z,99.25
2023-05-09T00:04:07.029Z,99.21
2023-05-09T00:05:06.997Z,99.18
2023-05-09T00:06:06.990Z,99.19
2023-05-09T00:07:06.971Z,99.19
2023-05-09T00:08:06.983Z,99.18
2023-05-09T00:09:06.945Z,99.18
2023-05-09T00:10:06.928Z,99.23
2023-05-09T00:11:06.906Z,99.22
2023-05-09T00:12:06.898Z,99.19
2023-05-09T00:13:06.934Z,99.15
2023-05-09T00:14:06.871Z,99.09
2023-05-09T00:15:06.868Z,99.03
2023-05-09T00:16:06.883Z,99.04
2023-05-09T00:17:06.823Z,99.09
2023-05-09T00:18:06.825Z,99.03
2023-05-09T00:19:06.802Z,99.03
2023-05-09T00:20:06.791Z,98.98
2023-05-09T00:21:06.792Z,98.94
2023-05-09T00:22:06.764Z,98.94
2023-05-09T00:23:06.836Z,98.91
2023-05-09T00:24:06.757Z,98.94
2023-05-09T00:25:06.729Z,98.95
2023-05-09T00:26:06.729Z,98.97
2023-05-09T00:27:06.692Z,98.93
2023-05-09T00:28:06.698Z,98.87
2023-05-09T00:29:06.671Z,98.86
2023-05-09T00:30:06.691Z,98.90
2023-05-09T00:31:06.637Z,98.75
2023-05-09T00:32:06.673Z,98.66
2023-05-09T00:33:06.671Z,98.65
2023-05-09T00:34:06.599Z,98.75
2023-05-09T00:35:06.595Z,98.83
2023-05-09T00:36:06.594Z,98.84
2023-05-09T00:37:06.557Z,98.75
2023-05-09T00:38:06.559Z,98.66
2023-05-09T00:39:06.538Z,98.63
2023-05-09T00:40:06.608Z,98.64
2023-05-09T00:41:06.512Z,98.50
2023-05-09T00:42:06.519Z,98.48
2023-05-09T00:43:06.495Z,98.52
2023-05-09T00:44:06.465Z,98.49
2023-05-09T00:45:06.454Z,98.50
2023-05-09T00:46:06.511Z,98.49
2023-05-09T00:47:06.458Z,98.44
2023-05-09T00:48:06.497Z,98.41
2023-05-09T00:49:06.422Z,98.41
2023-05-09T00:50:06.398Z,98.40
2023-05-09T00:51:06.393Z,98.37
2023-05-09T00:52:06.392Z,98.33
2023-05-09T00:53:06.375Z,98.29
2023-05-09T00:54:09.032Z,98.31
2023-05-09T00:55:06.331Z,98.33
2023-05-09T00:56:06.315Z,98.34
2023-05-09T00:57:06.325Z,98.37
2023-05-09T00:58:06.281Z,98.40
2023-05-09T00:59:06.310Z,98.37
2023-05-09T01:00:06.269Z,98.31
2023-05-09T01:01:06.295Z,98.29
2023-05-09T01:02:06.253Z,98.23
2023-05-09T01:03:06.303Z,98.22
2023-05-09T01:04:06.221Z,98.23
2023-05-09T01:05:06.221Z,98.27
2023-05-09T01:06:06.180Z,98.36
2023-05-09T01:07:06.182Z,98.43
2023-05-09T01:08:06.176Z,98.44
2023-05-09T01:09:06.144Z,98.51
2023-05-09T01:10:06.138Z,98.54
2023-05-09T01:11:06.113Z,98.55
2023-05-09T01:12:06.106Z,98.57
2023-05-09T01:13:06.167Z,98.72
2023-05-09T01:14:06.156Z,98.82
2023-05-09T01:15:06.079Z,98.84
2023-05-09T01:16:06.112Z,98.83
2023-05-09T01:17:06.035Z,98.81
2023-05-09T01:18:06.038Z,98.82
2023-05-09T01:19:06.059Z,98.82
2023-05-09T01:20:05.999Z,98.84
2023-05-09T01:21:06.005Z,98.81
2023-05-09T01:22:05.977Z,98.82
2023-05-09T01:23:05.959Z,98.74
2023-05-09T01:24:05.950Z,98.63
2023-05-09T01:25:05.959Z,98.55
2023-05-09T01:26:05.924Z,98.49
2023-05-09T01:27:05.920Z,98.52
2023-05-09T01:28:05.898Z,98.54
2023-05-09T01:29:05.887Z,98.53
2023-05-09T01:30:05.869Z,98.53
2023-05-09T01:31:05.905Z,98.50
2023-05-09T01:32:05.862Z,98.44
2023-05-09T01:33:05.914Z,98.36
2023-05-09T01:34:05.852Z,98.36
2023-05-09T01:35:05.800Z,98.34
2023-05-09T01:36:05.789Z,98.28
2023-05-09T01:37:05.808Z,98.19
2023-05-09T01:38:05.761Z,98.20
2023-05-09T01:39:05.744Z,98.16
2023-05-09T01:40:05.745Z,98.09
2023-05-09T01:41:05.733Z,98.08
2023-05-09T01:42:05.741Z,98.12
2023-05-09T01:43:05.691Z,98.15
2023-05-09T01:44:05.775Z,98.28
2023-05-09T01:45:05.764Z,98.44
2023-05-09T01:46:05.957Z,98.45
2023-05-09T01:47:05.692Z,98.66
2023-05-09T01:48:05.796Z,98.89
2023-05-09T01:49:05.762Z,98.96
2023-05-09T01:50:05.694Z,99.07
2023-05-09T01:51:05.588Z,99.14
2023-05-09T01:52:05.594Z,99.14
2023-05-09T01:53:05.579Z,99.19
2023-05-09T01:54:05.580Z,99.25
2023-05-09T01:55:05.555Z,99.30
2023-05-09T01:56:05.678Z,99.32
2023-05-09T01:57:05.527Z,99.34
2023-05-09T01:58:05.518Z,99.35
2023-05-09T01:59:05.510Z,99.38
2023-05-09T02:00:05.472Z,99.38
2023-05-09T02:01:05.511Z,99.41
2023-05-09T02:02:05.461Z,99.42
2023-05-09T02:03:05.446Z,99.44
2023-05-09T02:04:05.433Z,99.45
2023-05-09T02:05:05.415Z,99.45
2023-05-09T02:06:05.397Z,99.47
2023-05-09T02:07:05.384Z,99.46
2023-05-09T02:08:05.373Z,99.46
2023-05-09T02:09:05.382Z,99.44
2023-05-09T02:10:05.343Z,99.39
2023-05-09T02:11:05.338Z,99.40
2023-05-09T02:12:05.323Z,99.34
2023-05-09T02:13:05.381Z,99.27
2023-05-09T02:14:05.281Z,99.35
2023-05-09T02:15:05.299Z,99.37
2023-05-09T02:16:05.305Z,99.39
2023-05-09T02:17:05.263Z,99.53
2023-05-09T02:18:05.309Z,99.70
2023-05-09T02:19:05.219Z,99.82
2023-05-09T02:20:05.207Z,100.00
2023-05-09T02:21:05.251Z,100.00
2023-05-09T02:22:05.332Z,100.00
2023-05-09T02:23:05.201Z,100.00
2023-05-09T02:24:05.153Z,100.00
2023-05-09T02:25:05.152Z,100.00
2023-05-09T02:26:05.131Z,100.00
2023-05-09T02:27:05.150Z,100.00
2023-05-09T02:28:05.105Z,100.00
2023-05-09T02:29:05.086Z,100.00
2023-05-09T02:30:05.076Z,100.00
2023-05-09T02:31:05.070Z,100.00
2023-05-09T02:32:05.124Z,100.00
2023-05-09T02:33:05.114Z,100.00
2023-05-09T02:34:05.057Z,100.00
2023-05-09T02:35:05.024Z,100.00
2023-05-09T02:36:04.999Z,100.00
2023-05-09T02:37:04.995Z,100.00
2023-05-09T02:38:04.997Z,100.00
2023-05-09T02:39:05.016Z,100.00
2023-05-09T02:40:04.937Z,100.00
2023-05-09T02:41:04.934Z,100.00
2023-05-09T02:42:04.932Z,100.00
2023-05-09T02:43:04.920Z,100.00
2023-05-09T02:44:04.892Z,100.00
2023-05-09T02:45:04.905Z,100.00
2023-05-09T02:46:04.900Z,100.00
2023-05-09T02:47:04.881Z,100.00
2023-05-09T02:48:07.746Z,100.00
2023-05-09T02:49:04.850Z,100.00
2023-05-09T02:50:04.824Z,100.00
2023-05-09T02:51:04.828Z,100.00
2023-05-09T02:52:04.811Z,100.00
2023-05-09T02:53:04.775Z,100.00
2023-05-09T02:54:04.763Z,100.00
2023-05-09T02:55:04.788Z,100.00
2023-05-09T02:56:04.737Z,100.00
2023-05-09T02:57:04.726Z,100.00
2023-05-09T02:58:13.511Z,100.00
2023-05-09T02:59:04.707Z,100.00
2023-05-09T03:00:04.677Z,100.00
2023-05-09T03:01:04.708Z,100.00
2023-05-09T03:02:04.672Z,100.00
2023-05-09T03:03:04.692Z,100.00
2023-05-09T03:04:04.641Z,100.00
2023-05-09T03:05:04.647Z,100.00
2023-05-09T03:06:04.608Z,100.00
2023-05-09T03:07:04.608Z,100.00
2023-05-09T03:08:04.582Z,100.00
2023-05-09T03:09:04.562Z,100.00
2023-05-09T03:10:04.601Z,100.00
2023-05-09T03:11:04.543Z,100.00
2023-05-09T03:12:04.577Z,100.00
2023-05-09T03:13:04.535Z,100.00
2023-05-09T03:14:04.511Z,100.00
2023-05-09T03:15:04.491Z,100.00
2023-05-09T03:16:04.526Z,100.00
2023-05-09T03:17:04.460Z,100.00
2023-05-09T03:18:04.515Z,100.00
2023-05-09T03:19:04.441Z,100.00
2023-05-09T03:20:04.668Z,100.00
2023-05-09T03:21:04.422Z,100.00
2023-05-09T03:22:04.424Z,100.00
2023-05-09T03:23:04.404Z,100.00
2023-05-09T03:24:04.385Z,100.00
2023-05-09T03:25:04.490Z,100.00
2023-05-09T03:26:04.364Z,100.00
2023-05-09T03:27:04.342Z,100.00
2023-05-09T03:28:04.331Z,100.00
2023-05-09T03:29:04.330Z,100.00
2023-05-09T03:30:04.284Z,100.00
2023-05-09T03:31:04.316Z,100.00
2023-05-09T03:32:04.267Z,100.00
2023-05-09T03:33:04.313Z,100.00
2023-05-09T03:34:04.243Z,100.00
2023-05-09T03:35:04.266Z,100.00
2023-05-09T03:36:04.225Z,100.00
2023-05-09T03:37:04.222Z,100.00
2023-05-09T03:38:04.199Z,100.00
2023-05-09T03:39:04.189Z,100.00
2023-05-09T03:40:04.165Z,100.00
2023-05-09T03:41:04.180Z,100.00
2023-05-09T03:42:04.144Z,100.00
2023-05-09T03:43:04.133Z,100.00
2023-05-09T03:44:04.121Z,100.00
2023-05-09T03:45:04.099Z,100.00
2023-05-09T03:46:04.091Z,100.00
2023-05-09T03:47:04.172Z,100.00
2023-05-09T03:48:04.173Z,100.00
2023-05-09T03:49:04.051Z,100.00
2023-05-09T03:50:04.035Z,100.00
2023-05-09T03:51:04.041Z,100.00
2023-05-09T03:52:04.009Z,100.00
2023-05-09T03:53:04.018Z,100.00
2023-05-09T03:54:03.984Z,100.00
2023-05-09T03:55:03.961Z,100.00
2023-05-09T03:56:03.973Z,100.00
2023-05-09T03:57:03.956Z,100.00
2023-05-09T03:58:03.962Z,100.00
2023-05-09T03:59:03.910Z,100.00
2023-05-09T04:00:03.974Z,100.00
2023-05-09T04:01:03.919Z,100.00
2023-05-09T04:02:03.904Z,100.00
2023-05-09T04:03:03.938Z,100.00
2023-05-09T04:04:03.939Z,100.00
2023-05-09T04:05:03.849Z,100.00
2023-05-09T04:06:03.829Z,100.00
2023-05-09T04:07:03.826Z,100.00
2023-05-09T04:08:03.796Z,100.00
2023-05-09T04:09:03.794Z,100.00
2023-05-09T04:10:03.822Z,100.00
2023-05-09T04:11:03.769Z,100.00
2023-05-09T04:12:03.748Z,100.00
2023-05-09T04:13:03.811Z,100.00
2023-05-09T04:14:03.725Z,100.00
2023-05-09T04:15:03.738Z,100.00
2023-05-09T04:16:03.727Z,100.00
2023-05-09T04:17:03.880Z,100.00
2023-05-09T04:18:03.715Z,100.00
2023-05-09T04:19:03.663Z,100.00
2023-05-09T04:20:03.660Z,100.00
2023-05-09T04:21:03.645Z,100.00
2023-05-09T04:22:03.644Z,100.00
2023-05-09T04:23:03.627Z,100.00
2023-05-09T04:24:03.612Z,100.00
2023-05-09T04:25:03.592Z,100.00
2023-05-09T04:26:03.568Z,100.00
2023-05-09T04:27:03.559Z,100.00
2023-05-09T04:28:03.617Z,100.00
2023-05-09T04:29:03.539Z,100.00
2023-05-09T04:30:03.522Z,100.00
2023-05-09T04:31:03.599Z,100.00
2023-05-09T04:32:03.549Z,100.00
2023-05-09T04:33:03.498Z,100.00
2023-05-09T04:34:03.494Z,100.00
2023-05-09T04:35:03.476Z,100.00
2023-05-09T04:36:03.442Z,100.00
2023-05-09T04:37:03.437Z,100.00
2023-05-09T04:38:03.412Z,100.00
2023-05-09T04:39:03.414Z,100.00
2023-05-09T04:40:03.423Z,100.00
2023-05-09T04:41:03.378Z,100.00
2023-05-09T04:42:03.379Z,100.00
2023-05-09T04:43:03.368Z,100.00
2023-05-09T04:44:03.362Z,100.00
2023-05-09T04:45:03.341Z,100.00
2023-05-09T04:46:03.401Z,100.00
2023-05-09T04:47:03.297Z,100.00
2023-05-09T04:48:03.317Z,100.00
2023-05-09T04:49:03.284Z,100.00
2023-05-09T04:50:03.288Z,100.00
2023-05-09T04:51:03.254Z,100.00
2023-05-09T04:52:03.269Z,100.00
2023-05-09T04:53:03.240Z,100.00
2023-05-09T04:54:03.216Z,100.00
2023-05-09T04:55:03.199Z,100.00
2023-05-09T04:56:03.190Z,100.00
2023-05-09T04:57:16.542Z,100.00
2023-05-09T04:58:03.170Z,100.00
2023-05-09T04:59:03.157Z,100.00
2023-05-09T05:00:03.149Z,100.00
2023-05-09T05:01:03.119Z,100.00
2023-05-09T05:02:03.309Z,100.00
2023-05-09T05:03:03.246Z,100.00
2023-05-09T05:04:03.090Z,99.91
2023-05-09T05:05:11.499Z,99.93
2023-05-09T05:06:03.064Z,99.97
2023-05-09T05:07:03.043Z,100.00
2023-05-09T05:08:03.040Z,100.00
2023-05-09T05:09:03.041Z,100.00
2023-05-09T05:10:03.003Z,100.00
2023-05-09T05:11:03.027Z,100.00
2023-05-09T05:12:04.936Z,100.00
2023-05-09T05:13:03.005Z,100.00
2023-05-09T05:14:02.990Z,100.00
2023-05-09T05:15:02.971Z,100.00
2023-05-09T05:16:02.975Z,100.00
2023-05-09T05:17:02.952Z,100.00
2023-05-09T05:18:03.002Z,100.00
2023-05-09T05:19:02.894Z,100.00
2023-05-09T05:20:02.873Z,100.00
2023-05-09T05:21:02.890Z,100.00
2023-05-09T05:22:02.851Z,100.00
2023-05-09T05:23:02.878Z,100.00
2023-05-09T05:24:02.813Z,100.00
2023-05-09T05:25:02.808Z,100.00
2023-05-09T05:26:02.818Z,100.00
2023-05-09T05:27:02.788Z,100.00
2023-05-09T05:28:02.776Z,100.00
2023-05-09T05:29:02.783Z,100.00
2023-05-09T05:30:02.772Z,100.00
2023-05-09T05:31:02.737Z,100.00
2023-05-09T05:32:02.744Z,100.00
2023-05-09T05:33:02.801Z,100.00
2023-05-09T05:34:02.701Z,100.00
2023-05-09T05:35:02.728Z,100.00
2023-05-09T05:36:02.675Z,100.00
2023-05-09T05:37:02.648Z,100.00
2023-05-09T05:38:02.663Z,100.00
2023-05-09T05:39:02.628Z,100.00
2023-05-09T05:40:02.615Z,100.00
2023-05-09T05:41:02.612Z,100.00
2023-05-09T05:42:02.604Z,100.00
2023-05-09T05:43:02.584Z,100.00
2023-05-09T05:44:02.570Z,100.00
2023-05-09T05:45:02.545Z,100.00
2023-05-09T05:46:02.568Z,100.00
2023-05-09T05:47:02.554Z,99.75
2023-05-09T05:48:02.731Z,99.77
2023-05-09T05:49:02.492Z,99.79
2023-05-09T05:50:02.500Z,99.82
2023-05-09T05:51:02.459Z,99.64
2023-05-09T05:52:02.459Z,99.67
2023-05-09T05:53:02.455Z,99.83
2023-05-09T05:54:02.444Z,99.79
2023-05-09T05:55:02.437Z,99.72
2023-05-09T05:56:02.431Z,99.72
2023-05-09T05:57:02.426Z,99.61
2023-05-09T05:58:02.382Z,99.10
2023-05-09T05:59:02.359Z,99.06
2023-05-09T06:00:02.629Z,99.12
2023-05-09T06:01:02.380Z,99.10
2023-05-09T06:02:02.387Z,99.16
2023-05-09T06:03:02.378Z,99.18
2023-05-09T06:04:02.349Z,98.73
2023-05-09T06:05:02.288Z,98.54
2023-05-09T06:06:02.288Z,98.30
2023-05-09T06:07:02.284Z,98.12
2023-05-09T06:08:02.247Z,98.21
2023-05-09T06:09:02.228Z,98.16
2023-05-09T06:10:02.229Z,98.02
2023-05-09T06:11:02.203Z,98.00
2023-05-09T06:12:02.209Z,98.06
2023-05-09T06:13:02.209Z,97.94
2023-05-09T06:14:02.188Z,97.37
2023-05-09T06:15:02.165Z,97.27
2023-05-09T06:16:14.976Z,97.04
2023-05-09T06:17:02.166Z,96.82
2023-05-09T06:18:02.168Z,96.88
2023-05-09T06:19:02.096Z,96.80
2023-05-09T06:20:02.099Z,96.46
2023-05-09T06:21:02.087Z,96.27
2023-05-09T06:22:02.103Z,95.49
2023-05-09T06:23:02.052Z,94.32
2023-05-09T06:24:08.524Z,93.69
2023-05-09T06:25:02.041Z,93.70
2023-05-09T06:26:02.007Z,93.61
2023-05-09T06:27:02.027Z,93.37
2023-05-09T06:28:01.983Z,93.07
2023-05-09T06:29:01.990Z,92.74
2023-05-09T06:30:08.336Z,91.80
2023-05-09T06:31:02.002Z,90.86
2023-05-09T06:32:01.935Z,90.53
2023-05-09T06:33:01.947Z,90.14
2023-05-09T06:34:01.902Z,89.67
2023-05-09T06:35:01.926Z,89.22
2023-05-09T06:36:01.877Z,88.97
2023-05-09T06:37:01.884Z,89.56
2023-05-09T06:38:01.862Z,89.82
2023-05-09T06:39:01.871Z,90.26
2023-05-09T06:40:01.904Z,90.08
2023-05-09T06:41:01.824Z,90.30
2023-05-09T06:42:01.815Z,89.98
2023-05-09T06:43:01.795Z,89.57
2023-05-09T06:44:01.795Z,89.03
2023-05-09T06:45:01.833Z,89.36
2023-05-09T06:46:01.838Z,90.07
2023-05-09T06:47:01.761Z,90.37
2023-05-09T06:48:01.754Z,90.88
2023-05-09T06:49:01.752Z,91.36
2023-05-09T06:50:01.735Z,91.76
2023-05-09T06:51:01.707Z,91.78
2023-05-09T06:52:01.707Z,91.89
2023-05-09T06:53:01.696Z,91.48
2023-05-09T06:54:01.662Z,91.19
2023-05-09T06:55:01.646Z,90.20
2023-05-09T06:56:01.631Z,89.56
2023-05-09T06:57:01.602Z,89.53
2023-05-09T06:58:01.631Z,90.18
2023-05-09T06:59:01.616Z,90.19
2023-05-09T07:00:01.631Z,89.09
2023-05-09T07:01:01.593Z,89.33
2023-05-09T07:02:01.650Z,89.26
2023-05-09T07:03:01.601Z,89.64
2023-05-09T07:04:01.549Z,89.35
2023-05-09T07:05:01.650Z,88.46
2023-05-09T07:06:01.509Z,87.27
2023-05-09T07:07:01.488Z,86.51
2023-05-09T07:08:01.488Z,86.27
2023-05-09T07:09:01.464Z,86.49
2023-05-09T07:10:10.462Z,84.89
2023-05-09T07:11:01.450Z,84.27
2023-05-09T07:12:01.421Z,83.99
2023-05-09T07:13:01.435Z,83.69
2023-05-09T07:14:01.393Z,84.17
2023-05-09T07:15:01.419Z,84.45
2023-05-09T07:16:01.415Z,84.39
2023-05-09T07:17:18.033Z,84.97
2023-05-09T07:18:01.380Z,84.62
2023-05-09T07:19:01.329Z,84.97
2023-05-09T07:20:01.334Z,85.27
2023-05-09T07:21:01.314Z,85.88
2023-05-09T07:22:01.323Z,86.53
2023-05-09T07:23:01.331Z,85.76
2023-05-09T07:24:01.288Z,86.36
2023-05-09T07:25:01.265Z,86.64
2023-05-09T07:26:01.272Z,86.95
2023-05-09T07:27:01.237Z,87.32
2023-05-09T07:28:01.252Z,87.29
2023-05-09T07:29:01.205Z,86.63
2023-05-09T07:30:01.208Z,86.37
2023-05-09T07:31:01.193Z,86.66
2023-05-09T07:32:01.255Z,86.22
2023-05-09T07:33:01.256Z,86.15
2023-05-09T07:34:01.157Z,86.43
2023-05-09T07:35:01.135Z,85.95
2023-05-09T07:36:01.138Z,85.27
2023-05-09T07:37:01.116Z,84.81
2023-05-09T07:38:01.113Z,84.91
2023-05-09T07:39:01.086Z,83.86
2023-05-09T07:40:01.100Z,83.72
2023-05-09T07:41:01.051Z,83.92
2023-05-09T07:42:01.051Z,84.13
2023-05-09T07:43:01.034Z,84.28
2023-05-09T07:44:01.039Z,84.54
2023-05-09T07:45:00.999Z,85.00
2023-05-09T07:46:01.029Z,85.59
2023-05-09T07:47:00.967Z,86.90
2023-05-09T07:48:01.018Z,87.45
2023-05-09T07:49:00.935Z,87.22
2023-05-09T07:50:00.954Z,87.13
2023-05-09T07:51:00.929Z,86.72
2023-05-09T07:52:00.907Z,86.43
2023-05-09T07:53:00.916Z,85.85
2023-05-09T07:54:00.882Z,85.78
2023-05-09T07:55:00.903Z,86.19
2023-05-09T07:56:00.929Z,85.84
2023-05-09T07:57:00.843Z,86.62
2023-05-09T07:58:00.819Z,85.82
2023-05-09T07:59:00.828Z,87.56
2023-05-09T08:00:00.803Z,85.98
2023-05-09T08:01:00.810Z,85.62
2023-05-09T08:02:00.834Z,85.87
2023-05-09T08:03:00.996Z,85.54
2023-05-09T08:04:00.919Z,85.08
2023-05-09T08:05:00.813Z,84.47
2023-05-09T08:06:00.802Z,84.64
2023-05-09T08:07:00.737Z,83.93
2023-05-09T08:08:00.741Z,82.85
2023-05-09T08:09:00.712Z,81.59
2023-05-09T08:10:00.674Z,81.28
2023-05-09T08:11:00.661Z,78.94
2023-05-09T08:12:00.704Z,77.85
2023-05-09T08:13:00.654Z,75.01
2023-05-09T08:14:00.642Z,74.76
2023-05-09T08:15:00.641Z,75.49
2023-05-09T08:16:00.714Z,74.49
2023-05-09T08:17:00.597Z,74.84
2023-05-09T08:18:00.644Z,74.79
2023-05-09T08:19:00.585Z,74.52
2023-05-09T08:20:00.611Z,74.46
2023-05-09T08:21:00.563Z,74.13
2023-05-09T08:22:00.563Z,75.18
2023-05-09T08:23:00.541Z,77.16
2023-05-09T08:24:00.535Z,76.95
2023-05-09T08:25:00.508Z,76.37
2023-05-09T08:26:00.588Z,77.22
2023-05-09T08:27:00.489Z,77.47
2023-05-09T08:28:00.467Z,75.58
2023-05-09T08:29:00.461Z,72.69
2023-05-09T08:30:00.474Z,73.72
2023-05-09T08:31:00.478Z,71.47
2023-05-09T08:32:00.417Z,69.62
2023-05-09T08:33:00.430Z,67.83
2023-05-09T08:34:00.401Z,67.74
2023-05-09T08:35:00.398Z,67.40
2023-05-09T08:36:00.426Z,67.13
2023-05-09T08:37:00.360Z,69.50
2023-05-09T08:38:00.352Z,68.28
2023-05-09T08:39:00.348Z,68.73
2023-05-09T08:40:00.372Z,68.58
2023-05-09T08:41:00.318Z,69.10
2023-05-09T08:42:00.334Z,68.45
2023-05-09T08:43:00.299Z,67.16
2023-05-09T08:44:00.288Z,68.20
2023-05-09T08:45:00.284Z,70.05
2023-05-09T08:46:00.520Z,70.14
2023-05-09T08:47:00.431Z,70.99
2023-05-09T08:48:00.291Z,71.99
2023-05-09T08:49:00.232Z,70.10
2023-05-09T08:50:00.214Z,70.53
2023-05-09T08:51:00.210Z,70.34
2023-05-09T08:52:00.269Z,70.61
2023-05-09T08:53:00.182Z,71.05
2023-05-09T08:54:00.184Z,71.46
2023-05-09T08:55:00.162Z,72.08
2023-05-09T08:56:00.159Z,71.57
2023-05-09T08:57:00.126Z,70.65
2023-05-09T08:58:00.158Z,67.81
2023-05-09T08:59:00.139Z,67.44
2023-05-09T09:00:00.152Z,68.82
2023-05-09T09:01:00.137Z,66.64
2023-05-09T09:02:00.172Z,65.35
2023-05-09T09:03:00.157Z,65.31
2023-05-09T09:04:00.046Z,66.35
2023-05-09T09:05:00.095Z,67.50
2023-05-09T09:06:00.040Z,67.93
2023-05-09T09:07:00.019Z,66.33
2023-05-09T09:07:59.997Z,66.15
2023-05-09T09:08:59.984Z,64.92
2023-05-09T09:09:59.969Z,65.26
2023-05-09T09:10:59.951Z,67.48
2023-05-09T09:11:59.965Z,69.06
2023-05-09T09:12:59.997Z,70.00
2023-05-09T09:13:59.921Z,70.15
2023-05-09T09:14:59.921Z,67.90
2023-05-09T09:16:00.229Z,66.32
2023-05-09T09:17:00.007Z,62.88
2023-05-09T09:18:00.358Z,59.47
2023-05-09T09:18:59.882Z,57.02
2023-05-09T09:19:59.862Z,55.40
2023-05-09T09:20:59.838Z,57.03
2023-05-09T09:21:59.851Z,55.21
2023-05-09T09:22:59.845Z,51.11
2023-05-09T09:23:59.828Z,50.77
2023-05-09T09:24:59.818Z,49.81
2023-05-09T09:26:00.255Z,49.84
2023-05-09T09:26:59.794Z,51.93
2023-05-09T09:27:59.798Z,53.22
2023-05-09T09:28:59.771Z,56.41
2023-05-09T09:29:59.769Z,55.02
2023-05-09T09:30:59.749Z,57.82
2023-05-09T09:31:59.778Z,57.02
2023-05-09T09:32:59.762Z,57.38
2023-05-09T09:33:59.815Z,57.00
2023-05-09T09:34:59.749Z,56.68
2023-05-09T09:35:59.731Z,55.41
2023-05-09T09:36:59.694Z,54.76
2023-05-09T09:38:00.204Z,53.43
2023-05-09T09:38:59.683Z,54.37
2023-05-09T09:39:59.645Z,52.68
2023-05-09T09:40:59.647Z,53.89
2023-05-09T09:41:59.640Z,51.16
2023-05-09T09:42:59.630Z,52.82
2023-05-09T09:43:59.658Z,51.24
2023-05-09T09:44:59.630Z,52.32
2023-05-09T09:45:59.646Z,56.15
2023-05-09T09:46:59.593Z,58.92
2023-05-09T09:47:59.653Z,59.18
2023-05-09T09:48:59.575Z,59.24
2023-05-09T09:49:59.590Z,56.06
2023-05-09T09:50:59.585Z,53.05
2023-05-09T09:51:59.619Z,53.86
2023-05-09T09:52:59.542Z,52.66
2023-05-09T09:53:59.531Z,51.47
2023-05-09T09:54:59.533Z,52.58
2023-05-09T09:55:59.535Z,50.83
2023-05-09T09:56:59.496Z,50.83
2023-05-09T09:57:59.502Z,50.39
2023-05-09T09:58:59.494Z,52.53
2023-05-09T09:59:59.474Z,55.87
2023-05-09T10:00:59.510Z,55.52
2023-05-09T10:01:59.455Z,55.10
2023-05-09T10:02:59.498Z,54.13
2023-05-09T10:03:59.476Z,52.25
2023-05-09T10:04:59.410Z,51.11
2023-05-09T10:05:59.403Z,49.99
2023-05-09T10:06:59.391Z,50.82
2023-05-09T10:07:59.464Z,52.85
2023-05-09T10:08:59.377Z,49.80
2023-05-09T10:09:59.358Z,52.76
2023-05-09T10:10:59.353Z,53.73
2023-05-09T10:11:59.350Z,51.06
2023-05-09T10:12:59.419Z,49.67
2023-05-09T10:13:59.403Z,51.53
2023-05-09T10:14:59.364Z,52.30
2023-05-09T10:15:59.507Z,52.47
2023-05-09T10:16:59.470Z,52.66
2023-05-09T10:17:59.501Z,51.29
2023-05-09T10:18:59.315Z,49.18
2023-05-09T10:19:59.306Z,47.89
2023-05-09T10:20:59.306Z,49.97
2023-05-09T10:21:59.260Z,50.57
2023-05-09T10:22:59.258Z,53.60
2023-05-09T10:23:59.260Z,52.75
2023-05-09T10:24:59.246Z,50.89
2023-05-09T10:25:59.300Z,48.89
2023-05-09T10:26:59.263Z,50.45
2023-05-09T10:27:59.225Z,50.53
2023-05-09T10:28:59.213Z,50.10
2023-05-09T10:29:59.194Z,48.84
2023-05-09T10:30:59.213Z,49.90
2023-05-09T10:31:59.176Z,51.10
2023-05-09T10:32:59.210Z,50.00
2023-05-09T10:33:59.195Z,50.41
2023-05-09T10:34:59.130Z,48.70
2023-05-09T10:35:59.152Z,48.01
2023-05-09T10:36:59.261Z,45.84
2023-05-09T10:37:59.143Z,45.41
2023-05-09T10:38:59.094Z,45.39
2023-05-09T10:39:59.093Z,43.10
2023-05-09T10:40:59.102Z,41.82
2023-05-09T10:41:59.081Z,41.21
2023-05-09T10:42:59.092Z,40.21
2023-05-09T10:43:59.066Z,40.53
2023-05-09T10:44:59.040Z,40.90
2023-05-09T10:45:59.081Z,40.96
2023-05-09T10:46:59.107Z,42.28
2023-05-09T10:47:59.032Z,41.51
2023-05-09T10:48:59.060Z,39.98
2023-05-09T10:49:59.019Z,41.63
2023-05-09T10:50:58.980Z,42.23
2023-05-09T10:51:59.036Z,46.08
2023-05-09T10:52:58.985Z,48.15
2023-05-09T10:53:58.968Z,48.52
2023-05-09T10:54:58.999Z,48.02
2023-05-09T10:55:58.990Z,47.43
2023-05-09T10:56:58.936Z,45.15
2023-05-09T10:57:58.978Z,46.78
2023-05-09T10:58:58.917Z,46.63
2023-05-09T10:59:58.909Z,48.81
2023-05-09T11:00:58.943Z,50.57
2023-05-09T11:01:58.943Z,52.60
2023-05-09T11:02:58.906Z,52.80
2023-05-09T11:03:58.955Z,53.76
2023-05-09T11:04:58.865Z,54.04
2023-05-09T11:05:58.875Z,54.86
2023-05-09T11:06:58.871Z,55.29
2023-05-09T11:07:58.838Z,55.16
2023-05-09T11:08:58.832Z,55.63
2023-05-09T11:09:58.827Z,54.21
2023-05-09T11:10:58.809Z,56.04
2023-05-09T11:11:58.795Z,56.07
2023-05-09T11:12:58.830Z,53.59
2023-05-09T11:13:58.786Z,53.74
2023-05-09T11:14:58.756Z,54.82
2023-05-09T11:15:58.765Z,54.76
2023-05-09T11:16:58.728Z,52.49
2023-05-09T11:17:58.764Z,52.74
2023-05-09T11:18:58.739Z,52.83
2023-05-09T11:19:58.722Z,51.39
2023-05-09T11:20:58.689Z,51.27
2023-05-09T11:21:58.684Z,51.65
2023-05-09T11:22:58.685Z,49.64
2023-05-09T11:23:58.699Z,49.73
2023-05-09T11:24:58.657Z,47.95
2023-05-09T11:25:58.656Z,47.07
2023-05-09T11:26:58.672Z,47.99
2023-05-09T11:27:58.626Z,46.81
2023-05-09T11:28:58.700Z,48.28
2023-05-09T11:29:58.693Z,51.68
2023-05-09T11:30:58.588Z,50.24
2023-05-09T11:31:58.683Z,50.51
2023-05-09T11:32:58.719Z,48.20
2023-05-09T11:33:58.597Z,45.82
2023-05-09T11:34:58.580Z,44.82
2023-05-09T11:35:58.631Z,44.93
2023-05-09T11:36:58.558Z,45.71
2023-05-09T11:37:58.551Z,48.89
2023-05-09T11:38:58.516Z,48.57
2023-05-09T11:39:58.567Z,48.71
2023-05-09T11:40:58.496Z,47.36
2023-05-09T11:41:58.511Z,46.65
2023-05-09T11:42:58.958Z,48.09
2023-05-09T11:43:58.482Z,48.26
2023-05-09T11:44:58.474Z,48.77
2023-05-09T11:45:58.542Z,49.22
2023-05-09T11:46:58.446Z,48.94
2023-05-09T11:47:58.476Z,47.32
2023-05-09T11:48:58.471Z,45.83
2023-05-09T11:49:58.450Z,45.32
2023-05-09T11:50:58.412Z,43.90
2023-05-09T11:51:58.483Z,42.46
2023-05-09T11:52:58.406Z,43.54
2023-05-09T11:53:58.418Z,43.08
2023-05-09T11:54:58.450Z,44.02
2023-05-09T11:55:58.364Z,42.25
2023-05-09T11:56:58.363Z,40.26
2023-05-09T11:57:58.423Z,41.09
2023-05-09T11:58:58.343Z,41.19
2023-05-09T11:59:58.356Z,40.57
2023-05-09T12:00:58.396Z,42.55
2023-05-09T12:01:58.378Z,42.92
2023-05-09T12:02:58.409Z,44.18
2023-05-09T12:03:58.460Z,45.36
2023-05-09T12:04:58.289Z,45.71
2023-05-09T12:05:58.313Z,47.75
2023-05-09T12:06:58.328Z,46.45
2023-05-09T12:07:58.265Z,47.71
2023-05-09T12:08:58.242Z,46.91
2023-05-09T12:09:58.285Z,46.57
2023-05-09T12:10:58.242Z,46.89
2023-05-09T12:11:58.237Z,45.59
2023-05-09T12:12:58.295Z,44.13
2023-05-09T12:13:58.212Z,45.05
2023-05-09T12:14:58.198Z,45.85
2023-05-09T12:15:58.269Z,47.05
2023-05-09T12:16:58.191Z,46.13
2023-05-09T12:17:58.199Z,45.58
2023-05-09T12:18:58.176Z,43.73
2023-05-09T12:19:58.149Z,43.85
2023-05-09T12:20:58.157Z,43.26
2023-05-09T12:21:58.177Z,42.14
2023-05-09T12:22:58.126Z,41.77
2023-05-09T12:23:58.113Z,42.15
2023-05-09T12:24:58.132Z,43.79
2023-05-09T12:25:58.114Z,46.15
2023-05-09T12:26:58.106Z,45.59
2023-05-09T12:27:58.126Z,46.12
2023-05-09T12:28:58.082Z,47.63
2023-05-09T12:29:58.056Z,49.48
2023-05-09T12:30:58.073Z,49.55
2023-05-09T12:31:58.049Z,50.89
2023-05-09T12:32:58.173Z,52.45
2023-05-09T12:33:58.070Z,50.56
2023-05-09T12:34:57.997Z,50.78
2023-05-09T12:35:58.016Z,50.79
2023-05-09T12:36:57.986Z,53.20
2023-05-09T12:37:57.964Z,51.93
2023-05-09T12:38:57.983Z,51.27
2023-05-09T12:39:57.956Z,52.09
2023-05-09T12:40:57.959Z,50.94
2023-05-09T12:42:01.901Z,53.45
2023-05-09T12:42:57.905Z,53.73
2023-05-09T12:43:57.933Z,55.11
2023-05-09T12:44:57.905Z,54.11
2023-05-09T12:45:57.865Z,54.98